Aviation Digital Data Service (ADDS)

Output produced by METARs form (1024 UTC 16 August 2018)
found at http://aviationweather.gov/adds/metars/
 
KHOU 160942Z 1610/1706 19003KT P6SM FEW015 FEW250 
     FM161500 21006KT P6SM SCT030 
     FM161800 19007KT P6SM SCT040 SCT250 
     FM162100 17008KT P6SM VCSH BKN050 
     FM170100 17006KT P6SM SCT250